createdAt,value
2022-10-11T00:00:32.318Z,4.70
2022-10-11T00:03:00.739Z,4.40
2022-10-11T00:05:28.920Z,3.93
2022-10-11T00:07:56.647Z,3.83
2022-10-11T00:10:25.379Z,4.50
2022-10-11T00:12:54.408Z,3.67
2022-10-11T00:15:23.598Z,3.73
2022-10-11T00:17:51.808Z,4.67
2022-10-11T00:20:20.208Z,4.10
2022-10-11T00:22:49.549Z,3.80
2022-10-11T00:25:18.487Z,3.70
2022-10-11T00:27:46.446Z,4.70
2022-10-11T00:30:15.970Z,4.00
2022-10-11T00:32:43.615Z,4.17
2022-10-11T00:35:11.369Z,3.90
2022-10-11T00:37:40.238Z,3.47
2022-10-11T00:40:10.600Z,3.50
2022-10-11T00:42:38.991Z,4.27
2022-10-11T00:45:44.081Z,3.90
2022-10-11T00:48:21.095Z,5.00
2022-10-11T00:50:48.706Z,5.20
2022-10-11T00:53:16.812Z,5.87
2022-10-11T00:55:49.058Z,5.10
2022-10-11T00:58:18.595Z,5.10
2022-10-11T01:00:48.079Z,5.67
2022-10-11T01:03:19.425Z,6.17
2022-10-11T01:05:47.622Z,5.63
2022-10-11T01:08:15.675Z,6.07
2022-10-11T01:10:43.337Z,4.10
2022-10-11T01:13:31.003Z,5.40
2022-10-11T01:16:09.299Z,6.37
2022-10-11T01:18:45.647Z,5.03
2022-10-11T01:21:25.076Z,4.57
2022-10-11T01:24:10.921Z,6.13
2022-10-11T01:27:11.011Z,5.40
2022-10-11T01:29:51.111Z,5.20
2022-10-11T01:32:25.764Z,5.60
2022-10-11T01:34:59.396Z,5.53
2022-10-11T01:37:33.730Z,4.60
2022-10-11T01:40:40.077Z,6.47
2022-10-11T01:43:07.972Z,5.90
2022-10-11T01:45:36.243Z,5.70
2022-10-11T01:48:08.624Z,6.10
2022-10-11T01:50:47.631Z,4.90
2022-10-11T01:53:32.948Z,4.60
2022-10-11T01:56:10.518Z,4.73
2022-10-11T01:58:52.823Z,4.87
2022-10-11T02:01:27.943Z,4.73
2022-10-11T02:04:04.094Z,5.23
2022-10-11T02:06:39.122Z,6.20
2022-10-11T02:09:13.526Z,5.80
2022-10-11T02:11:42.254Z,5.60
2022-10-11T02:14:13.160Z,5.53
2022-10-11T02:16:44.854Z,5.83
2022-10-11T02:19:18.538Z,5.83
2022-10-11T02:21:52.542Z,7.00
2022-10-11T02:24:24.185Z,5.90
2022-10-11T02:26:57.027Z,5.70
2022-10-11T02:29:28.885Z,5.60
2022-10-11T02:31:59.860Z,6.37
2022-10-11T02:34:32.767Z,5.13
2022-10-11T02:37:07.235Z,5.17
2022-10-11T02:39:42.072Z,6.20
2022-10-11T02:42:15.175Z,6.63
2022-10-11T02:44:47.318Z,6.10
2022-10-11T02:47:16.097Z,6.73
2022-10-11T02:49:45.470Z,7.70
2022-10-11T02:52:15.042Z,7.47
2022-10-11T02:54:42.686Z,7.50
2022-10-11T02:57:10.657Z,6.40
2022-10-11T02:59:38.325Z,6.33
2022-10-11T03:02:06.391Z,6.67
2022-10-11T03:04:34.134Z,7.10
2022-10-11T03:07:03.076Z,6.90
2022-10-11T03:09:31.313Z,7.93
2022-10-11T03:11:58.977Z,6.50
2022-10-11T03:14:27.460Z,5.93
2022-10-11T03:16:55.121Z,6.60
2022-10-11T03:19:23.112Z,6.50
2022-10-11T03:21:50.826Z,5.60
2022-10-11T03:24:19.981Z,6.80
2022-10-11T03:26:48.476Z,6.70
2022-10-11T03:29:16.087Z,6.77
2022-10-11T03:31:44.244Z,6.27
2022-10-11T03:34:11.889Z,5.90
2022-10-11T03:36:39.987Z,5.80
2022-10-11T03:39:07.625Z,5.80
2022-10-11T03:41:37.013Z,4.87
2022-10-11T03:44:06.088Z,4.83
2022-10-11T03:46:34.154Z,5.90
2022-10-11T03:49:02.996Z,6.10
2022-10-11T03:51:32.236Z,6.40
2022-10-11T03:53:59.933Z,5.30
2022-10-11T03:56:27.682Z,6.03
2022-10-11T03:58:56.645Z,6.27
2022-10-11T04:01:24.370Z,6.10
2022-10-11T04:03:52.048Z,5.73
2022-10-11T04:06:19.709Z,5.60
2022-10-11T04:08:47.718Z,7.07
2022-10-11T04:11:15.882Z,6.47
2022-10-11T04:13:43.928Z,5.93
2022-10-11T04:16:13.407Z,5.27
2022-10-11T04:18:41.068Z,5.10
2022-10-11T04:21:08.786Z,6.00
2022-10-11T04:23:36.444Z,4.77
2022-10-11T04:26:06.300Z,5.30
2022-10-11T04:28:34.644Z,5.50
2022-10-11T04:31:04.552Z,5.87
2022-10-11T04:33:34.553Z,5.57
2022-10-11T04:36:02.476Z,5.47
2022-10-11T04:38:30.437Z,6.90
2022-10-11T04:41:07.174Z,6.73
2022-10-11T04:43:35.499Z,6.47
2022-10-11T04:46:03.540Z,8.17
2022-10-11T04:48:31.274Z,6.70
2022-10-11T04:51:00.975Z,7.30
2022-10-11T04:53:29.426Z,6.40
2022-10-11T04:56:00.956Z,6.17
2022-10-11T04:58:30.276Z,5.97
2022-10-11T05:00:58.429Z,7.47
2022-10-11T05:03:26.741Z,7.00
2022-10-11T05:05:54.720Z,6.90
2022-10-11T05:08:24.750Z,6.13
2022-10-11T05:10:57.279Z,6.87
2022-10-11T05:13:26.474Z,7.30
2022-10-11T05:15:54.401Z,6.30
2022-10-11T05:18:22.698Z,6.27
2022-10-11T05:20:50.799Z,7.37
2022-10-11T05:23:18.401Z,7.63
2022-10-11T05:25:47.831Z,6.90
2022-10-11T05:28:15.488Z,7.50
2022-10-11T05:30:43.512Z,7.70
2022-10-11T05:33:11.329Z,7.37
2022-10-11T05:35:39.416Z,7.60
2022-10-11T05:38:07.181Z,8.77
2022-10-11T05:40:35.238Z,6.83
2022-10-11T05:43:04.361Z,8.07
2022-10-11T05:45:33.890Z,7.90
2022-10-11T05:48:01.805Z,7.47
2022-10-11T05:50:29.411Z,7.47
2022-10-11T05:52:57.420Z,6.93
2022-10-11T05:55:25.148Z,7.20
2022-10-11T05:57:53.924Z,6.73
2022-10-11T06:00:23.597Z,6.97
2022-10-11T06:02:51.786Z,7.20
2022-10-11T06:05:19.893Z,7.20
2022-10-11T06:07:47.549Z,7.00
2022-10-11T06:10:16.362Z,6.90
2022-10-11T06:12:44.533Z,6.87
2022-10-11T06:15:12.551Z,6.90
2022-10-11T06:17:42.296Z,6.77
2022-10-11T06:20:11.218Z,6.97
2022-10-11T06:22:39.524Z,7.60
2022-10-11T06:25:08.268Z,7.33
2022-10-11T06:27:36.882Z,7.30
2022-10-11T06:30:05.522Z,8.13
2022-10-11T06:32:34.156Z,7.60
2022-10-11T06:35:05.814Z,7.43
2022-10-11T06:37:33.827Z,6.90
2022-10-11T06:40:02.125Z,7.63
2022-10-11T06:42:29.900Z,7.93
2022-10-11T06:44:57.639Z,6.80
2022-10-11T06:47:26.049Z,7.30
2022-10-11T06:49:53.670Z,8.40
2022-10-11T06:52:23.099Z,8.00
2022-10-11T06:54:50.708Z,9.07
2022-10-11T06:57:19.067Z,10.17
2022-10-11T06:59:47.213Z,10.57
2022-10-11T07:02:15.238Z,12.00
2022-10-11T07:04:43.205Z,13.77
2022-10-11T07:07:13.880Z,13.70
2022-10-11T07:09:43.240Z,13.10
2022-10-11T07:12:10.885Z,14.57
2022-10-11T07:14:38.501Z,16.87
2022-10-11T07:17:06.479Z,16.47
2022-10-11T07:19:34.535Z,15.70
2022-10-11T07:22:02.251Z,13.97
2022-10-11T07:24:30.806Z,17.07
2022-10-11T07:26:59.844Z,18.50
2022-10-11T07:29:27.846Z,19.40
2022-10-11T07:31:55.903Z,16.87
2022-10-11T07:34:23.830Z,16.53
2022-10-11T07:36:51.645Z,17.97
2022-10-11T07:39:19.257Z,16.90
2022-10-11T07:41:46.905Z,15.73
2022-10-11T07:44:16.252Z,16.87
2022-10-11T07:46:44.390Z,17.47
2022-10-11T07:49:12.054Z,16.70
2022-10-11T07:51:39.672Z,16.50
2022-10-11T07:54:07.797Z,14.33
2022-10-11T07:56:37.597Z,15.43
2022-10-11T07:59:06.282Z,15.33
2022-10-11T08:01:35.717Z,13.80
2022-10-11T08:04:03.885Z,13.20
2022-10-11T08:06:33.095Z,14.77
2022-10-11T08:09:02.044Z,14.47
2022-10-11T08:11:31.983Z,16.33
2022-10-11T08:14:01.302Z,15.43
2022-10-11T08:16:28.945Z,15.40
2022-10-11T08:18:58.688Z,13.37
2022-10-11T08:21:27.085Z,15.17
2022-10-11T08:24:24.588Z,14.17
2022-10-11T08:26:53.191Z,14.43
2022-10-11T08:29:21.768Z,13.00
2022-10-11T08:31:49.469Z,13.10
2022-10-11T08:34:18.629Z,13.10
2022-10-11T08:36:48.786Z,12.77
2022-10-11T08:39:17.122Z,12.77
2022-10-11T08:42:17.750Z,12.23
2022-10-11T08:45:09.955Z,11.73
2022-10-11T08:47:41.253Z,12.30
2022-10-11T08:50:20.157Z,11.60
2022-10-11T08:52:52.320Z,12.30
2022-10-11T08:55:26.169Z,11.10
2022-10-11T09:19:38.371Z,13.80
2022-10-11T09:46:36.224Z,12.37
2022-10-11T09:49:08.353Z,11.93
2022-10-11T09:51:36.990Z,12.13
2022-10-11T09:54:07.126Z,13.93
2022-10-11T09:56:41.183Z,10.97
2022-10-11T09:59:36.545Z,11.33
2022-10-11T10:02:19.931Z,11.10
2022-10-11T10:05:17.000Z,11.03
2022-10-11T10:08:23.942Z,10.60
2022-10-11T10:11:01.694Z,11.80
2022-10-11T10:13:38.747Z,10.40
2022-10-11T10:16:11.510Z,10.30
2022-10-11T10:18:50.607Z,9.90
2022-10-11T10:21:27.150Z,11.83
2022-10-11T10:23:56.692Z,11.27
2022-10-11T10:26:26.374Z,11.00
2022-10-11T10:29:00.798Z,12.57
2022-10-11T10:31:54.999Z,11.90
2022-10-11T10:34:30.686Z,13.90
2022-10-11T10:37:04.610Z,14.07
2022-10-11T10:39:37.867Z,12.70
2022-10-11T10:42:14.792Z,12.87
2022-10-11T10:44:43.289Z,13.93
2022-10-11T10:47:20.862Z,12.70
2022-10-11T10:49:58.182Z,13.23
2022-10-11T10:52:49.988Z,13.10
2022-10-11T10:55:25.733Z,12.10
2022-10-11T10:58:09.865Z,13.93
2022-10-11T11:00:45.155Z,12.17
2022-10-11T11:03:22.350Z,12.90
2022-10-11T11:06:00.342Z,13.87
2022-10-11T11:08:43.175Z,11.50
2022-10-11T11:11:28.400Z,14.93
2022-10-11T11:14:01.338Z,12.17
2022-10-11T11:16:37.408Z,11.30
2022-10-11T11:19:14.847Z,12.20
2022-10-11T11:21:55.461Z,9.67
2022-10-11T11:24:35.052Z,10.47
2022-10-11T11:27:08.194Z,9.90
2022-10-11T11:29:51.840Z,11.27
2022-10-11T11:32:32.895Z,9.90
2022-10-11T11:35:05.118Z,9.37
2022-10-11T11:37:38.531Z,9.30
2022-10-11T11:40:15.008Z,8.93
2022-10-11T11:42:47.393Z,8.97
2022-10-11T11:45:22.336Z,11.30
2022-10-11T11:47:57.448Z,9.47
2022-10-11T11:50:28.652Z,9.30
2022-10-11T11:53:05.368Z,8.43
2022-10-11T11:55:38.629Z,8.90
2022-10-11T11:58:19.353Z,9.87
2022-10-11T12:00:59.392Z,8.73
2022-10-11T12:03:35.132Z,8.97
2022-10-11T12:06:20.717Z,9.40
2022-10-11T12:09:01.742Z,8.10
2022-10-11T12:11:40.615Z,7.90
2022-10-11T12:14:36.801Z,8.80
2022-10-11T12:17:17.639Z,9.97
2022-10-11T12:20:05.223Z,8.20
2022-10-11T12:22:51.540Z,7.70
2022-10-11T12:25:44.380Z,8.50
2022-10-11T12:28:49.469Z,8.43
2022-10-11T12:31:24.971Z,7.47
2022-10-11T12:34:09.519Z,7.30
2022-10-11T12:36:39.829Z,7.90
2022-10-11T12:39:48.469Z,6.60
2022-10-11T12:42:35.793Z,7.80
2022-10-11T12:45:33.062Z,7.57
2022-10-11T12:48:16.282Z,6.10
2022-10-11T12:50:52.809Z,7.40
2022-10-11T12:53:44.389Z,6.50
2022-10-11T12:56:22.329Z,7.17
2022-10-11T12:59:01.739Z,7.20
2022-10-11T13:01:36.019Z,7.00
2022-10-11T13:04:10.922Z,6.67
2022-10-11T13:06:47.203Z,7.53
2022-10-11T13:09:21.726Z,6.57
2022-10-11T13:11:55.494Z,7.33
2022-10-11T13:14:26.803Z,6.80
2022-10-11T13:17:06.193Z,7.43
2022-10-11T13:22:19.972Z,6.20
2022-10-11T13:24:48.983Z,8.27
2022-10-11T13:27:21.152Z,6.20
2022-10-11T13:29:52.758Z,6.67
2022-10-11T13:32:23.680Z,6.80
2022-10-11T13:37:30.888Z,6.30
2022-10-11T13:39:59.389Z,6.10
2022-10-11T13:42:30.566Z,6.10
2022-10-11T13:45:02.291Z,6.63
2022-10-11T13:47:33.142Z,5.83
2022-10-11T13:50:12.063Z,5.60
2022-10-11T13:52:53.589Z,6.20
2022-10-11T13:55:27.546Z,6.50
2022-10-11T13:57:56.475Z,6.47
2022-10-11T14:00:32.252Z,5.47
2022-10-11T14:03:03.768Z,7.50
2022-10-11T14:05:37.670Z,7.30
2022-10-11T14:08:08.502Z,7.40
2022-10-11T14:10:38.003Z,9.60
2022-10-11T14:13:20.664Z,7.70
2022-10-11T14:16:00.824Z,7.97
2022-10-11T14:18:39.414Z,6.90
2022-10-11T14:21:28.552Z,7.83
2022-10-11T14:23:58.652Z,7.93
2022-10-11T14:26:27.968Z,7.87
2022-10-11T14:28:59.556Z,7.90
2022-10-11T14:31:39.160Z,7.73
2022-10-11T14:34:09.831Z,8.07
2022-10-11T14:36:37.480Z,8.03
2022-10-11T14:39:11.501Z,8.17
2022-10-11T14:41:39.180Z,8.03
2022-10-11T14:44:06.880Z,7.40
2022-10-11T14:46:39.068Z,8.67
2022-10-11T14:49:13.154Z,8.03
2022-10-11T14:51:41.540Z,7.90
2022-10-11T14:54:10.797Z,7.20
2022-10-11T14:56:38.874Z,8.57
2022-10-11T14:59:07.303Z,7.47
2022-10-11T15:01:36.757Z,8.20
2022-10-11T15:04:04.920Z,7.17
2022-10-11T15:06:38.412Z,7.30
2022-10-11T15:09:07.934Z,8.60
2022-10-11T15:11:37.568Z,7.80
2022-10-11T15:14:55.789Z,7.80
2022-10-11T15:17:25.028Z,7.73
2022-10-11T15:19:52.945Z,7.07
2022-10-11T15:22:20.587Z,9.20
2022-10-11T15:24:51.617Z,8.30
2022-10-11T15:27:19.704Z,7.57
2022-10-11T15:29:47.679Z,9.40
2022-10-11T15:32:15.353Z,8.50
2022-10-11T15:34:45.183Z,7.87
2022-10-11T15:37:13.235Z,8.60
2022-10-11T15:39:41.161Z,10.00
2022-10-11T15:42:08.820Z,8.57
2022-10-11T15:44:36.511Z,8.30
2022-10-11T15:47:04.314Z,11.07
2022-10-11T15:49:32.155Z,8.77
2022-10-11T15:52:02.543Z,10.07
2022-10-11T15:54:30.283Z,9.67
2022-10-11T15:56:58.934Z,10.17
2022-10-11T15:59:27.828Z,8.87
2022-10-11T16:04:58.237Z,12.37
2022-10-11T16:07:27.530Z,8.73
2022-10-11T16:09:55.670Z,9.33
2022-10-11T16:12:23.638Z,8.20
2022-10-11T16:14:51.176Z,7.73
2022-10-11T16:17:19.196Z,7.73
2022-10-11T16:19:46.809Z,8.70
2022-10-11T16:22:14.845Z,8.03
2022-10-11T16:24:43.869Z,9.10
2022-10-11T16:27:16.454Z,8.10
2022-10-11T16:29:46.552Z,7.43
2022-10-11T16:32:14.138Z,8.13
2022-10-11T16:34:42.958Z,8.70
2022-10-11T16:37:10.611Z,7.70
2022-10-11T16:39:39.120Z,8.77
2022-10-11T16:42:08.313Z,9.10
2022-10-11T16:44:38.511Z,9.07
2022-10-11T16:47:08.089Z,11.03
2022-10-11T16:49:36.399Z,10.17
2022-10-11T16:52:04.554Z,10.83
2022-10-11T16:54:32.841Z,9.47
2022-10-11T16:57:01.651Z,9.90
2022-10-11T16:59:31.268Z,11.37
2022-10-11T17:01:59.042Z,10.10
2022-10-11T17:04:29.616Z,11.10
2022-10-11T17:06:58.304Z,8.40
2022-10-11T17:09:26.820Z,9.40
2022-10-11T17:11:54.418Z,8.20
2022-10-11T17:14:22.595Z,9.07
2022-10-11T17:16:51.500Z,8.33
2022-10-11T17:19:20.746Z,9.10
2022-10-11T17:21:48.373Z,9.20
2022-10-11T17:24:16.348Z,9.03
2022-10-11T17:26:43.945Z,9.47
2022-10-11T17:29:15.062Z,8.87
2022-10-11T17:31:48.846Z,7.90
2022-10-11T17:34:19.103Z,7.57
2022-10-11T17:36:46.752Z,9.20
2022-10-11T17:54:32.913Z,13.40
2022-10-11T17:57:00.534Z,11.17
2022-10-11T17:59:29.268Z,9.67
2022-10-11T18:01:57.662Z,12.47
2022-10-11T18:04:28.342Z,11.40
2022-10-11T18:06:56.530Z,13.40
2022-10-11T18:09:24.763Z,16.27
2022-10-11T18:11:54.094Z,15.30
2022-10-11T18:14:23.345Z,14.80
2022-10-11T18:16:51.448Z,13.40
2022-10-11T18:19:19.220Z,17.30
2022-10-11T18:21:46.848Z,11.77
2022-10-11T18:24:17.219Z,9.37
2022-10-11T18:26:46.239Z,9.60
2022-10-11T18:29:15.750Z,8.57
2022-10-11T18:31:44.109Z,9.90
2022-10-11T18:34:14.786Z,9.90
2022-10-11T18:36:43.239Z,8.73
2022-10-11T18:39:15.087Z,8.60
2022-10-11T18:41:44.473Z,8.87
2022-10-11T18:44:15.175Z,8.67
2022-10-11T18:46:45.087Z,10.33
2022-10-11T18:49:13.358Z,8.63
2022-10-11T18:51:43.100Z,9.73
2022-10-11T18:54:16.677Z,9.37
2022-10-11T18:56:48.242Z,8.30
2022-10-11T18:59:15.948Z,9.57
2022-10-11T19:01:46.968Z,8.43
2022-10-11T19:04:16.654Z,8.60
2022-10-11T19:06:47.363Z,10.30
2022-10-11T19:09:17.633Z,9.60
2022-10-11T19:11:45.677Z,9.50
2022-10-11T19:14:15.350Z,9.33
2022-10-11T19:16:49.435Z,9.10
2022-10-11T19:19:18.144Z,9.60
2022-10-11T19:21:48.957Z,8.67
2022-10-11T19:24:17.645Z,8.60
2022-10-11T19:26:46.348Z,9.73
2022-10-11T19:29:16.509Z,9.43
2022-10-11T19:31:47.667Z,11.20
2022-10-11T19:34:15.902Z,10.47
2022-10-11T19:36:43.802Z,8.70
2022-10-11T19:39:14.129Z,9.77
2022-10-11T19:41:42.922Z,9.47
2022-10-11T19:44:11.087Z,10.50
2022-10-11T19:46:54.874Z,9.80
2022-10-11T19:49:25.824Z,9.73
2022-10-11T19:51:55.195Z,12.27
2022-10-11T19:54:23.417Z,12.70
2022-10-11T19:56:51.544Z,10.93
2022-10-11T19:59:20.542Z,10.53
2022-10-11T20:01:52.815Z,8.60
2022-10-11T20:07:12.026Z,10.00
2022-10-11T20:09:39.901Z,10.90
2022-10-11T20:12:08.234Z,10.20
2022-10-11T20:14:36.429Z,10.70
2022-10-11T20:17:04.019Z,9.67
2022-10-11T20:19:32.014Z,9.90
2022-10-11T20:22:00.418Z,10.73
2022-10-11T20:24:33.477Z,10.63
2022-10-11T20:27:03.834Z,11.50
2022-10-11T20:29:31.562Z,10.20
2022-10-11T20:31:59.808Z,10.87
2022-10-11T20:34:28.790Z,10.00
2022-10-11T20:36:59.408Z,11.00
2022-10-11T20:39:27.663Z,9.93
2022-10-11T20:41:56.562Z,11.30
2022-10-11T20:44:24.788Z,9.17
2022-10-11T20:46:52.595Z,10.40
2022-10-11T20:49:20.679Z,9.60
2022-10-11T20:51:48.450Z,10.60
2022-10-11T20:54:16.464Z,10.43
2022-10-11T20:56:44.240Z,9.80
2022-10-11T20:59:13.286Z,10.20
2022-10-11T21:01:42.904Z,9.83
2022-10-11T21:04:17.556Z,10.37
2022-10-11T21:06:45.194Z,10.50
2022-10-11T21:09:15.585Z,10.50
2022-10-11T21:11:44.710Z,11.47
2022-10-11T21:14:13.691Z,10.57
2022-10-11T21:16:41.645Z,10.73
2022-10-11T21:19:14.916Z,10.87
2022-10-11T21:21:43.403Z,11.87
2022-10-11T21:24:11.120Z,10.90
2022-10-11T21:26:39.121Z,11.43
2022-10-11T21:29:08.634Z,10.73
2022-10-11T21:31:37.764Z,11.13
2022-10-11T21:34:07.755Z,11.17
2022-10-11T21:36:35.659Z,10.00
2022-10-11T21:39:03.819Z,10.87
2022-10-11T21:41:34.158Z,11.43
2022-10-11T21:44:02.002Z,11.00
2022-10-11T21:47:01.067Z,10.20
2022-10-11T21:49:21.278Z,10.13
2022-10-11T21:51:48.910Z,10.60
2022-10-11T21:54:16.916Z,10.00
2022-10-11T21:56:44.820Z,9.67
2022-10-11T21:59:12.968Z,11.00
2022-10-11T22:01:42.179Z,10.40
2022-10-11T22:04:10.914Z,11.03
2022-10-11T22:06:40.525Z,10.27
2022-10-11T22:09:08.730Z,9.80
2022-10-11T22:11:36.809Z,9.43
2022-10-11T22:14:05.689Z,10.40
2022-10-11T22:16:34.254Z,10.93
2022-10-11T22:19:01.972Z,9.37
2022-10-11T22:21:29.787Z,9.87
2022-10-11T22:23:58.763Z,10.03
2022-10-11T22:26:30.044Z,10.87
2022-10-11T22:28:58.134Z,8.63
2022-10-11T22:31:26.153Z,10.70
2022-10-11T22:33:55.708Z,10.43
2022-10-11T22:36:24.911Z,9.80
2022-10-11T22:38:54.075Z,10.10
2022-10-11T22:41:23.952Z,10.37
2022-10-11T22:43:52.549Z,11.10
2022-10-11T22:46:20.243Z,10.13
2022-10-11T22:48:48.615Z,10.20
2022-10-11T22:51:16.750Z,9.37
2022-10-11T22:53:44.431Z,10.00
2022-10-11T22:56:12.144Z,10.37
2022-10-11T22:58:41.139Z,11.47
2022-10-11T23:01:09.845Z,10.77
2022-10-11T23:03:37.809Z,10.00
2022-10-11T23:06:06.382Z,10.90
2022-10-11T23:08:34.013Z,9.60
2022-10-11T23:11:04.038Z,9.90
2022-10-11T23:13:31.850Z,10.07
2022-10-11T23:16:00.967Z,10.20
2022-10-11T23:18:29.129Z,9.70
2022-10-11T23:21:00.215Z,9.07
2022-10-11T23:23:29.944Z,10.47
2022-10-11T23:26:07.360Z,11.30
2022-10-11T23:28:35.991Z,12.23
2022-10-11T23:31:09.869Z,10.37
2022-10-11T23:33:37.945Z,10.90
2022-10-11T23:36:06.733Z,11.37
2022-10-11T23:38:34.356Z,11.33
2022-10-11T23:41:02.710Z,12.00
2022-10-11T23:43:30.757Z,9.30
2022-10-11T23:45:58.435Z,10.03
2022-10-11T23:48:27.617Z,10.00
2022-10-11T23:50:55.230Z,9.33
2022-10-11T23:53:23.228Z,9.70
2022-10-11T23:55:51.357Z,10.40
2022-10-11T23:58:19.029Z,10.03
